createdAt,value
2019-05-19T00:00:08.025Z,99.90
2019-05-19T00:03:09.345Z,99.90
2019-05-19T00:06:10.830Z,99.90
2019-05-19T00:09:12.079Z,99.90
2019-05-19T00:12:13.512Z,99.90
2019-05-19T00:15:14.762Z,99.90
2019-05-19T00:18:16.204Z,99.90
2019-05-19T00:21:17.438Z,99.90
2019-05-19T00:24:18.803Z,99.90
2019-05-19T00:27:20.083Z,99.90
2019-05-19T00:30:21.525Z,99.90
2019-05-19T00:33:23.527Z,99.90
2019-05-19T00:36:25.017Z,99.90
2019-05-19T00:39:26.274Z,99.90
2019-05-19T00:42:27.725Z,99.90
2019-05-19T00:45:28.993Z,99.90
2019-05-19T00:48:31.085Z,99.90
2019-05-19T00:51:32.312Z,99.90
2019-05-19T00:54:33.760Z,99.90
2019-05-19T00:57:35.088Z,99.90
2019-05-19T01:00:36.345Z,99.90
2019-05-19T01:03:37.780Z,99.90
2019-05-19T01:06:39.018Z,99.90
2019-05-19T01:09:40.397Z,99.90
2019-05-19T01:12:41.663Z,99.90
2019-05-19T01:15:43.087Z,99.90
2019-05-19T01:18:44.306Z,99.90
2019-05-19T01:21:45.925Z,99.90
2019-05-19T01:24:47.149Z,99.90
2019-05-19T01:27:48.520Z,99.90
2019-05-19T01:30:49.750Z,99.90
2019-05-19T01:33:51.826Z,99.90
2019-05-19T01:36:53.236Z,99.90
2019-05-19T01:39:54.495Z,99.90
2019-05-19T01:42:55.744Z,99.90
2019-05-19T01:45:57.311Z,99.90
2019-05-19T01:48:58.555Z,99.90
2019-05-19T01:51:59.805Z,99.90
2019-05-19T01:55:01.164Z,99.90
2019-05-19T01:58:02.537Z,99.90
2019-05-19T02:01:03.757Z,99.90
2019-05-19T02:04:05.201Z,99.90
2019-05-19T02:07:06.438Z,99.90
2019-05-19T02:10:07.902Z,99.90
2019-05-19T02:13:09.142Z,99.90
2019-05-19T02:16:10.407Z,99.90
2019-05-19T02:19:11.658Z,99.90
2019-05-19T02:22:13.101Z,99.90
2019-05-19T02:25:14.350Z,99.90
2019-05-19T02:28:15.738Z,99.90
2019-05-19T02:31:17.003Z,99.90
2019-05-19T02:34:18.673Z,99.90
2019-05-19T02:37:19.912Z,99.90
2019-05-19T02:40:21.284Z,99.90
2019-05-19T02:43:22.529Z,99.90
2019-05-19T02:46:24.162Z,99.90
2019-05-19T02:49:26.030Z,99.90
2019-05-19T02:52:27.274Z,99.90
2019-05-19T02:55:28.527Z,99.90
2019-05-19T02:58:30.367Z,99.90
2019-05-19T03:01:33.806Z,99.90
2019-05-19T03:04:35.926Z,99.90
2019-05-19T03:07:37.184Z,99.90
2019-05-19T03:10:38.463Z,99.90
2019-05-19T03:13:39.727Z,99.90
2019-05-19T03:16:40.981Z,99.90
2019-05-19T03:19:42.210Z,99.90
2019-05-19T03:22:43.658Z,99.90
2019-05-19T03:25:44.881Z,99.90
2019-05-19T03:28:46.322Z,99.90
2019-05-19T03:31:49.463Z,99.90
2019-05-19T03:34:51.198Z,99.90
2019-05-19T03:37:52.961Z,99.90
2019-05-19T03:40:54.216Z,99.90
2019-05-19T03:43:55.473Z,99.90
2019-05-19T03:46:56.852Z,99.90
2019-05-19T03:49:58.109Z,99.90
2019-05-19T03:52:59.606Z,99.90
2019-05-19T03:56:00.834Z,99.90
2019-05-19T03:59:02.183Z,99.90
2019-05-19T04:02:03.425Z,99.90
2019-05-19T04:05:05.886Z,99.90
2019-05-19T04:08:07.591Z,99.90
2019-05-19T04:11:08.777Z,99.90
2019-05-19T04:14:10.136Z,99.90
2019-05-19T04:17:11.348Z,99.90
2019-05-19T04:20:12.711Z,99.90
2019-05-19T04:23:13.949Z,99.90
2019-05-19T04:31:02.784Z,99.90
2019-05-19T04:34:04.242Z,99.90
2019-05-19T04:37:05.645Z,99.90
2019-05-19T04:40:06.889Z,99.90
2019-05-19T04:43:08.798Z,99.90
2019-05-19T04:46:09.992Z,99.90
2019-05-19T04:49:11.879Z,99.90
2019-05-19T04:52:15.260Z,99.90
2019-05-19T04:55:16.701Z,99.90
2019-05-19T04:58:17.941Z,99.90
2019-05-19T05:01:19.465Z,99.90
2019-05-19T05:04:21.032Z,99.90
2019-05-19T05:07:22.771Z,99.80
2019-05-19T05:10:24.085Z,99.90
2019-05-19T05:13:27.902Z,99.90
2019-05-19T05:16:29.551Z,99.90
2019-05-19T05:19:30.981Z,99.90
2019-05-19T05:22:32.214Z,99.90
2019-05-19T05:25:33.716Z,99.50
2019-05-19T05:28:35.308Z,99.70
2019-05-19T05:31:56.638Z,99.50
2019-05-19T05:34:57.937Z,99.70
2019-05-19T05:37:59.418Z,99.90
2019-05-19T05:45:17.569Z,99.90
2019-05-19T05:48:18.917Z,99.90
2019-05-19T05:51:20.174Z,99.90
2019-05-19T05:54:22.653Z,99.90
2019-05-19T05:57:24.042Z,99.60
2019-05-19T06:00:25.655Z,98.20
2019-05-19T06:03:26.941Z,97.60
2019-05-19T06:06:28.489Z,96.90
2019-05-19T06:09:29.789Z,96.20
2019-05-19T06:12:31.531Z,95.20
2019-05-19T06:15:32.799Z,94.30
2019-05-19T06:18:34.705Z,95.20
2019-05-19T06:21:35.979Z,95.10
2019-05-19T06:24:37.331Z,94.90
2019-05-19T06:27:38.615Z,94.90
2019-05-19T06:30:39.907Z,95.40
2019-05-19T06:33:41.571Z,95.70
2019-05-19T06:36:43.611Z,96.00
2019-05-19T06:39:45.662Z,96.00
2019-05-19T06:42:47.134Z,95.60
2019-05-19T06:45:51.490Z,96.30
2019-05-19T06:48:52.753Z,95.70
2019-05-19T06:51:53.981Z,96.40
2019-05-19T06:54:55.264Z,96.70
2019-05-19T06:57:59.514Z,96.40
2019-05-19T07:01:00.791Z,96.60
2019-05-19T07:04:02.486Z,96.50
2019-05-19T07:07:03.834Z,95.90
2019-05-19T07:10:10.243Z,94.30
2019-05-19T07:13:11.476Z,95.40
2019-05-19T07:16:13.483Z,95.50
2019-05-19T07:19:17.186Z,94.80
2019-05-19T07:22:18.800Z,94.30
2019-05-19T07:25:21.391Z,94.20
2019-05-19T07:28:22.936Z,94.50
2019-05-19T07:31:24.195Z,94.70
2019-05-19T07:34:25.681Z,94.00
2019-05-19T07:37:43.651Z,94.40
2019-05-19T07:40:52.308Z,93.00
2019-05-19T07:43:53.841Z,92.50
2019-05-19T07:46:55.541Z,91.30
2019-05-19T07:49:57.499Z,91.80
2019-05-19T07:52:59.153Z,92.40
2019-05-19T07:56:00.839Z,92.00
2019-05-19T07:59:02.694Z,91.10
2019-05-19T08:02:04.006Z,90.80
2019-05-19T08:05:05.868Z,91.10
2019-05-19T08:08:07.185Z,90.30
2019-05-19T08:11:08.767Z,90.40
2019-05-19T08:14:10.948Z,92.00
2019-05-19T08:17:12.357Z,91.80
2019-05-19T08:20:13.864Z,91.70
2019-05-19T08:23:15.346Z,91.50
2019-05-19T08:26:16.653Z,92.40
2019-05-19T08:29:17.949Z,91.80
2019-05-19T08:32:20.220Z,91.40
2019-05-19T08:35:22.500Z,89.70
2019-05-19T08:38:23.963Z,90.00
2019-05-19T08:41:25.920Z,90.30
2019-05-19T08:44:27.264Z,91.20
2019-05-19T08:47:29.685Z,90.70
2019-05-19T08:50:31.192Z,89.00
2019-05-19T08:53:32.791Z,88.80
2019-05-19T08:56:34.090Z,87.60
2019-05-19T08:59:35.683Z,87.40
2019-05-19T09:02:37.438Z,83.20
2019-05-19T09:05:38.738Z,83.80
2019-05-19T09:08:40.188Z,84.30
2019-05-19T09:11:43.002Z,83.60
2019-05-19T09:14:45.012Z,79.70
2019-05-19T09:17:46.712Z,82.10
2019-05-19T09:20:48.250Z,81.90
2019-05-19T09:23:51.876Z,83.50
2019-05-19T09:26:53.439Z,87.10
2019-05-19T09:29:55.491Z,87.10
2019-05-19T09:36:23.889Z,86.60
2019-05-19T09:39:25.675Z,84.80
2019-05-19T09:42:27.473Z,83.30
2019-05-19T09:46:00.630Z,82.40
2019-05-19T09:49:22.796Z,80.10
2019-05-19T09:52:24.915Z,77.70
2019-05-19T09:55:26.298Z,78.90
2019-05-19T09:58:27.691Z,77.60
2019-05-19T10:01:29.529Z,79.00
2019-05-19T10:04:31.010Z,78.60
2019-05-19T10:08:03.385Z,78.60
2019-05-19T10:11:42.595Z,77.50
2019-05-19T10:14:43.887Z,78.20
2019-05-19T10:17:45.494Z,77.60
2019-05-19T10:20:50.339Z,74.30
2019-05-19T10:23:51.202Z,73.80
2019-05-19T10:26:52.545Z,74.70
2019-05-19T10:29:54.448Z,74.60
2019-05-19T10:32:58.643Z,74.50
2019-05-19T10:35:59.174Z,71.30
2019-05-19T10:39:01.266Z,74.20
2019-05-19T10:42:03.038Z,73.40
2019-05-19T10:45:06.613Z,70.90
2019-05-19T10:48:08.739Z,71.50
2019-05-19T10:51:10.102Z,71.80
2019-05-19T10:54:11.419Z,72.90
2019-05-19T10:57:12.675Z,70.60
2019-05-19T11:00:14.363Z,70.60
2019-05-19T11:03:15.626Z,69.50
2019-05-19T11:06:17.055Z,71.10
2019-05-19T11:09:18.484Z,69.10
2019-05-19T11:12:19.740Z,73.10
2019-05-19T11:15:21.688Z,68.20
2019-05-19T11:18:22.950Z,65.70
2019-05-19T11:21:24.261Z,63.60
2019-05-19T11:24:26.083Z,65.50
2019-05-19T11:27:27.787Z,63.60
2019-05-19T11:30:35.088Z,62.10
2019-05-19T11:33:36.547Z,62.00
2019-05-19T11:36:37.821Z,60.30
2019-05-19T11:39:39.480Z,59.30
2019-05-19T11:42:46.655Z,58.10
2019-05-19T11:45:53.825Z,57.00
2019-05-19T11:49:02.019Z,57.40
2019-05-19T11:52:03.556Z,57.60
2019-05-19T11:55:05.009Z,58.40
2019-05-19T11:58:06.809Z,60.40
2019-05-19T12:01:08.718Z,60.30
2019-05-19T12:04:10.578Z,60.10
2019-05-19T12:07:12.633Z,61.30
2019-05-19T12:10:14.316Z,60.80
2019-05-19T12:13:15.666Z,60.30
2019-05-19T12:16:17.115Z,57.80
2019-05-19T12:19:18.539Z,54.70
2019-05-19T12:22:19.806Z,55.80
2019-05-19T12:25:21.041Z,57.90
2019-05-19T12:28:22.808Z,53.00
2019-05-19T12:31:24.177Z,50.90
2019-05-19T12:34:25.910Z,55.40
2019-05-19T12:37:27.546Z,52.20
2019-05-19T12:40:28.903Z,50.60
2019-05-19T12:43:30.299Z,53.30
2019-05-19T12:46:31.977Z,55.00
2019-05-19T12:49:33.451Z,51.50
2019-05-19T12:52:35.569Z,50.50
2019-05-19T12:55:37.974Z,51.60
2019-05-19T12:58:39.692Z,50.00
2019-05-19T13:01:40.922Z,50.10
2019-05-19T13:04:42.315Z,51.30
2019-05-19T13:07:43.649Z,48.40
2019-05-19T13:10:45.027Z,47.80
2019-05-19T13:13:46.308Z,50.40
2019-05-19T13:16:48.086Z,49.10
2019-05-19T13:19:49.405Z,45.90
2019-05-19T13:22:50.833Z,48.50
2019-05-19T13:25:52.116Z,49.80
2019-05-19T13:28:54.110Z,47.30
2019-05-19T13:31:55.849Z,48.30
2019-05-19T13:34:57.393Z,46.20
2019-05-19T13:37:58.746Z,48.20
2019-05-19T13:41:00.224Z,49.60
2019-05-19T13:44:01.471Z,48.20
2019-05-19T13:47:02.845Z,48.70
2019-05-19T13:50:05.207Z,52.20
2019-05-19T13:53:06.620Z,50.20
2019-05-19T13:56:08.705Z,52.00
2019-05-19T13:59:09.957Z,50.30
2019-05-19T14:02:11.812Z,49.80
2019-05-19T14:05:13.254Z,49.20
2019-05-19T14:08:14.934Z,47.10
2019-05-19T14:11:16.330Z,48.90
2019-05-19T14:14:17.777Z,47.00
2019-05-19T14:17:19.258Z,48.60
2019-05-19T14:20:21.748Z,51.50
2019-05-19T14:23:22.999Z,48.60
2019-05-19T14:26:24.913Z,48.60
2019-05-19T14:29:26.156Z,49.50
2019-05-19T14:32:27.494Z,48.40
2019-05-19T14:35:31.352Z,49.00
2019-05-19T14:38:33.800Z,48.90
2019-05-19T14:41:37.461Z,49.50
2019-05-19T14:44:39.261Z,50.50
2019-05-19T14:47:41.432Z,47.80
2019-05-19T14:50:44.585Z,47.30
2019-05-19T14:53:46.863Z,48.90
2019-05-19T14:56:51.981Z,48.60
2019-05-19T14:59:54.626Z,47.20
2019-05-19T15:02:57.049Z,49.30
2019-05-19T15:05:58.397Z,50.00
2019-05-19T15:09:00.559Z,52.50
2019-05-19T15:12:01.793Z,54.10
2019-05-19T15:15:07.166Z,53.60
2019-05-19T15:18:08.693Z,55.20
2019-05-19T15:21:10.229Z,55.80
2019-05-19T15:24:13.562Z,55.40
2019-05-19T15:27:14.925Z,55.60
2019-05-19T15:30:16.354Z,55.20
2019-05-19T15:33:17.977Z,56.50
2019-05-19T15:36:19.678Z,57.60
2019-05-19T15:39:21.733Z,56.10
2019-05-19T15:42:23.991Z,58.00
2019-05-19T15:45:26.017Z,57.60
2019-05-19T15:48:28.046Z,58.90
2019-05-19T15:51:36.332Z,61.70
2019-05-19T15:54:32.718Z,61.00
2019-05-19T15:57:35.274Z,62.60
2019-05-19T16:00:36.789Z,62.70
2019-05-19T16:03:38.009Z,63.10
2019-05-19T16:06:39.503Z,63.40
2019-05-19T16:09:41.464Z,62.90
2019-05-19T16:12:45.052Z,64.30
2019-05-19T16:15:48.377Z,65.60
2019-05-19T16:18:52.994Z,67.60
2019-05-19T16:21:53.490Z,68.00
2019-05-19T16:24:55.130Z,69.10
2019-05-19T16:27:56.649Z,70.50
2019-05-19T16:30:57.929Z,70.30
2019-05-19T16:33:59.764Z,72.40
2019-05-19T16:37:01.202Z,73.70
2019-05-19T16:40:03.313Z,74.10
2019-05-19T16:43:04.973Z,75.30
2019-05-19T16:46:06.382Z,77.10
2019-05-19T16:49:10.025Z,77.70
2019-05-19T16:52:11.266Z,79.30
2019-05-19T16:55:17.619Z,79.20
2019-05-19T16:58:21.510Z,79.40
2019-05-19T17:01:22.246Z,80.00
2019-05-19T17:04:23.743Z,80.40
2019-05-19T17:07:26.690Z,81.80
2019-05-19T17:10:30.028Z,83.10
2019-05-19T17:13:31.321Z,82.70
2019-05-19T17:16:32.686Z,83.40
2019-05-19T17:19:33.928Z,83.90
2019-05-19T17:22:36.466Z,84.00
2019-05-19T17:29:00.995Z,85.40
2019-05-19T17:32:06.122Z,85.60
2019-05-19T17:35:05.085Z,86.00
2019-05-19T17:38:06.629Z,86.50
2019-05-19T17:41:07.944Z,86.90
2019-05-19T17:44:09.283Z,87.70
2019-05-19T17:47:12.673Z,88.60
2019-05-19T17:50:18.619Z,89.40
2019-05-19T17:56:37.881Z,90.00
2019-05-19T17:59:39.246Z,90.00
2019-05-19T18:02:57.966Z,90.40
2019-05-19T18:06:09.590Z,90.60
2019-05-19T18:09:15.970Z,91.00
2019-05-19T18:12:23.278Z,91.20
2019-05-19T18:15:35.984Z,91.40
2019-05-19T18:22:18.731Z,92.30
2019-05-19T18:25:59.459Z,92.60
2019-05-19T18:29:04.044Z,93.00
2019-05-19T18:32:11.864Z,93.40
2019-05-19T18:35:16.611Z,93.60
2019-05-19T18:38:26.747Z,94.10
2019-05-19T18:41:30.082Z,94.50
2019-05-19T18:44:36.807Z,94.80
2019-05-19T18:47:39.286Z,95.30
2019-05-19T18:50:47.457Z,95.80
2019-05-19T18:53:50.972Z,95.90
2019-05-19T18:56:53.990Z,96.00
2019-05-19T19:00:02.111Z,96.00
2019-05-19T19:03:08.387Z,96.30
2019-05-19T19:06:10.692Z,96.40
2019-05-19T19:09:12.225Z,96.40
2019-05-19T19:12:14.573Z,96.80
2019-05-19T19:15:15.814Z,96.60
2019-05-19T19:18:17.386Z,96.80
2019-05-19T19:21:20.637Z,96.80
2019-05-19T19:24:22.267Z,96.80
2019-05-19T19:27:23.657Z,97.30
2019-05-19T19:30:26.747Z,96.80
2019-05-19T19:33:30.332Z,97.00
2019-05-19T19:36:32.454Z,97.00
2019-05-19T19:39:33.659Z,97.00
2019-05-19T19:42:35.312Z,97.50
2019-05-19T19:45:36.613Z,97.30
2019-05-19T19:48:38.331Z,97.40
2019-05-19T19:51:40.071Z,97.50
2019-05-19T19:54:41.682Z,97.60
2019-05-19T19:57:43.338Z,97.80
2019-05-19T20:00:44.732Z,98.00
2019-05-19T20:03:46.540Z,98.20
2019-05-19T20:06:47.792Z,98.00
2019-05-19T20:09:49.350Z,98.40
2019-05-19T20:12:50.870Z,98.30
2019-05-19T20:15:52.253Z,98.30
2019-05-19T20:18:53.508Z,98.40
2019-05-19T20:21:54.938Z,98.60
2019-05-19T20:24:56.512Z,98.70
2019-05-19T20:27:58.311Z,99.00
2019-05-19T20:31:00.597Z,99.20
2019-05-19T20:34:02.111Z,99.80
2019-05-19T20:37:03.523Z,99.70
2019-05-19T20:40:08.959Z,99.90
2019-05-19T20:43:10.193Z,99.80
2019-05-19T20:46:12.064Z,99.90
2019-05-19T20:49:13.304Z,99.90
2019-05-19T20:52:14.737Z,99.90
2019-05-19T20:55:16.227Z,99.90
2019-05-19T20:58:17.685Z,99.90
2019-05-19T21:01:18.939Z,99.90
2019-05-19T21:04:20.303Z,99.90
2019-05-19T21:07:21.883Z,99.90
2019-05-19T21:10:23.245Z,99.90
2019-05-19T21:13:25.097Z,99.90
2019-05-19T21:16:26.922Z,99.90
2019-05-19T21:19:28.185Z,99.90
2019-05-19T21:22:29.676Z,99.90
2019-05-19T21:25:30.910Z,99.90
2019-05-19T21:28:32.437Z,99.90
2019-05-19T21:31:33.706Z,99.90
2019-05-19T21:34:35.142Z,99.90
2019-05-19T21:37:36.505Z,99.90
2019-05-19T21:40:37.775Z,99.90
2019-05-19T21:43:39.098Z,99.90
2019-05-19T21:46:40.540Z,99.90
2019-05-19T21:49:41.786Z,99.90
2019-05-19T21:52:43.961Z,99.90
2019-05-19T21:55:46.298Z,99.90
2019-05-19T21:58:47.914Z,99.90
2019-05-19T22:01:49.631Z,99.90
2019-05-19T22:04:51.101Z,99.90
2019-05-19T22:08:00.048Z,99.90
2019-05-19T22:11:04.450Z,99.90
2019-05-19T22:14:04.460Z,99.90
2019-05-19T22:17:05.816Z,99.90
2019-05-19T22:20:07.376Z,99.90
2019-05-19T22:23:08.816Z,99.90
2019-05-19T22:26:10.051Z,99.90
2019-05-19T22:29:11.309Z,99.90
2019-05-19T22:32:12.489Z,99.90
2019-05-19T22:35:13.938Z,99.90
2019-05-19T22:38:15.278Z,99.90
2019-05-19T22:41:16.673Z,99.90
2019-05-19T22:44:20.254Z,99.90
2019-05-19T22:47:21.174Z,99.90
2019-05-19T22:50:22.602Z,99.90
2019-05-19T22:53:24.592Z,99.90
2019-05-19T22:56:26.025Z,99.90
2019-05-19T22:59:27.325Z,99.90
2019-05-19T23:02:28.808Z,99.90
2019-05-19T23:05:30.042Z,99.90
2019-05-19T23:08:31.500Z,99.90
2019-05-19T23:11:32.841Z,99.90
2019-05-19T23:14:34.269Z,99.90
2019-05-19T23:17:35.794Z,99.90
2019-05-19T23:20:37.304Z,99.90
2019-05-19T23:23:38.553Z,99.90
2019-05-19T23:26:39.793Z,99.90
2019-05-19T23:29:41.162Z,99.90
2019-05-19T23:32:42.413Z,99.90
2019-05-19T23:35:43.792Z,99.90
2019-05-19T23:38:45.045Z,99.90
2019-05-19T23:41:46.297Z,99.90
2019-05-19T23:44:47.670Z,99.90
2019-05-19T23:47:48.902Z,99.90
2019-05-19T23:50:50.335Z,99.90
2019-05-19T23:53:52.177Z,99.90
2019-05-19T23:56:53.619Z,99.90
2019-05-19T23:59:55.318Z,99.90
